sensor_id;sensor_type;location;lat;lon;timestamp;temperature;humidity
9723;DHT22;4900;49.306;8.500;2023-04-15T00:02:15;7.79;64.53
9723;DHT22;4900;49.306;8.500;2023-04-15T00:04:45;7.74;64.49
9723;DHT22;4900;49.306;8.500;2023-04-15T00:07:13;7.66;64.55
9723;DHT22;4900;49.306;8.500;2023-04-15T00:09:40;7.62;64.61
9723;DHT22;4900;49.306;8.500;2023-04-15T00:12:06;7.56;64.70
9723;DHT22;4900;49.306;8.500;2023-04-15T00:14:33;7.52;64.78
9723;DHT22;4900;49.306;8.500;2023-04-15T00:17:00;7.48;64.91
9723;DHT22;4900;49.306;8.500;2023-04-15T00:19:25;7.44;64.94
9723;DHT22;4900;49.306;8.500;2023-04-15T00:21:51;7.38;65.17
9723;DHT22;4900;49.306;8.500;2023-04-15T00:24:16;7.35;65.35
9723;DHT22;4900;49.306;8.500;2023-04-15T00:26:42;7.30;65.45
9723;DHT22;4900;49.306;8.500;2023-04-15T00:29:07;7.27;65.53
9723;DHT22;4900;49.306;8.500;2023-04-15T00:31:33;7.26;65.64
9723;DHT22;4900;49.306;8.500;2023-04-15T00:33:58;7.23;65.78
9723;DHT22;4900;49.306;8.500;2023-04-15T00:36:24;7.20;65.73
9723;DHT22;4900;49.306;8.500;2023-04-15T00:38:50;7.19;65.97
9723;DHT22;4900;49.306;8.500;2023-04-15T00:41:17;7.17;66.08
9723;DHT22;4900;49.306;8.500;2023-04-15T00:43:43;7.15;66.20
9723;DHT22;4900;49.306;8.500;2023-04-15T00:46:11;7.09;66.34
9723;DHT22;4900;49.306;8.500;2023-04-15T00:48:37;7.05;66.55
9723;DHT22;4900;49.306;8.500;2023-04-15T00:51:03;6.99;66.71
9723;DHT22;4900;49.306;8.500;2023-04-15T00:53:28;6.95;66.74
9723;DHT22;4900;49.306;8.500;2023-04-15T00:55:54;6.96;66.79
9723;DHT22;4900;49.306;8.500;2023-04-15T00:58:20;6.91;66.81
9723;DHT22;4900;49.306;8.500;2023-04-15T01:00:46;6.88;66.79
9723;DHT22;4900;49.306;8.500;2023-04-15T01:03:12;6.84;66.93
9723;DHT22;4900;49.306;8.500;2023-04-15T01:05:38;6.81;67.07
9723;DHT22;4900;49.306;8.500;2023-04-15T01:08:04;6.79;67.12
9723;DHT22;4900;49.306;8.500;2023-04-15T01:10:30;6.75;67.10
9723;DHT22;4900;49.306;8.500;2023-04-15T01:12:56;6.74;67.28
9723;DHT22;4900;49.306;8.500;2023-04-15T01:15:22;6.74;67.33
9723;DHT22;4900;49.306;8.500;2023-04-15T01:17:48;6.74;67.38
9723;DHT22;4900;49.306;8.500;2023-04-15T01:20:14;6.72;67.36
9723;DHT22;4900;49.306;8.500;2023-04-15T01:22:40;6.72;67.32
9723;DHT22;4900;49.306;8.500;2023-04-15T01:25:11;6.67;67.47
9723;DHT22;4900;49.306;8.500;2023-04-15T01:27:38;6.63;67.46
9723;DHT22;4900;49.306;8.500;2023-04-15T01:30:07;6.58;67.66
9723;DHT22;4900;49.306;8.500;2023-04-15T01:32:32;6.60;67.66
9723;DHT22;4900;49.306;8.500;2023-04-15T01:34:58;6.60;67.51
9723;DHT22;4900;49.306;8.500;2023-04-15T01:37:24;6.55;67.43
9723;DHT22;4900;49.306;8.500;2023-04-15T01:39:50;6.50;67.50
9723;DHT22;4900;49.306;8.500;2023-04-15T01:42:16;6.47;67.65
9723;DHT22;4900;49.306;8.500;2023-04-15T01:44:41;6.44;67.83
9723;DHT22;4900;49.306;8.500;2023-04-15T01:47:07;6.40;67.68
9723;DHT22;4900;49.306;8.500;2023-04-15T01:49:33;6.37;67.61
9723;DHT22;4900;49.306;8.500;2023-04-15T01:51:58;6.33;67.64
9723;DHT22;4900;49.306;8.500;2023-04-15T01:54:25;6.33;67.65
9723;DHT22;4900;49.306;8.500;2023-04-15T01:56:52;6.33;67.79
9723;DHT22;4900;49.306;8.500;2023-04-15T01:59:17;6.34;67.84
9723;DHT22;4900;49.306;8.500;2023-04-15T02:01:43;6.32;67.94
9723;DHT22;4900;49.306;8.500;2023-04-15T02:04:09;6.32;67.97
9723;DHT22;4900;49.306;8.500;2023-04-15T02:06:41;6.27;68.03
9723;DHT22;4900;49.306;8.500;2023-04-15T02:09:08;6.27;68.13
9723;DHT22;4900;49.306;8.500;2023-04-15T02:11:34;6.23;68.18
9723;DHT22;4900;49.306;8.500;2023-04-15T02:14:01;6.17;68.35
9723;DHT22;4900;49.306;8.500;2023-04-15T02:16:26;6.16;68.34
9723;DHT22;4900;49.306;8.500;2023-04-15T02:18:52;6.15;68.31
9723;DHT22;4900;49.306;8.500;2023-04-15T02:21:17;6.12;68.42
9723;DHT22;4900;49.306;8.500;2023-04-15T02:23:43;6.08;68.40
9723;DHT22;4900;49.306;8.500;2023-04-15T02:26:09;6.03;68.22
9723;DHT22;4900;49.306;8.500;2023-04-15T02:28:34;5.98;68.41
9723;DHT22;4900;49.306;8.500;2023-04-15T02:31:06;5.97;68.42
9723;DHT22;4900;49.306;8.500;2023-04-15T02:33:33;5.89;68.60
9723;DHT22;4900;49.306;8.500;2023-04-15T02:35:59;5.88;68.48
9723;DHT22;4900;49.306;8.500;2023-04-15T02:38:25;5.85;68.69
9723;DHT22;4900;49.306;8.500;2023-04-15T02:40:51;5.82;68.63
9723;DHT22;4900;49.306;8.500;2023-04-15T02:43:16;5.78;68.66
9723;DHT22;4900;49.306;8.500;2023-04-15T02:45:44;5.75;68.89
9723;DHT22;4900;49.306;8.500;2023-04-15T02:48:10;5.71;68.94
9723;DHT22;4900;49.306;8.500;2023-04-15T02:50:35;5.68;68.97
9723;DHT22;4900;49.306;8.500;2023-04-15T02:53:03;5.66;69.01
9723;DHT22;4900;49.306;8.500;2023-04-15T02:55:30;5.64;69.16
9723;DHT22;4900;49.306;8.500;2023-04-15T02:57:55;5.61;69.30
9723;DHT22;4900;49.306;8.500;2023-04-15T03:00:22;5.57;69.24
9723;DHT22;4900;49.306;8.500;2023-04-15T03:02:49;5.53;69.36
9723;DHT22;4900;49.306;8.500;2023-04-15T03:05:20;5.51;69.33
9723;DHT22;4900;49.306;8.500;2023-04-15T03:07:49;5.51;69.24
9723;DHT22;4900;49.306;8.500;2023-04-15T03:10:14;5.47;69.12
9723;DHT22;4900;49.306;8.500;2023-04-15T03:12:39;5.43;69.00
9723;DHT22;4900;49.306;8.500;2023-04-15T03:15:06;5.40;69.07
9723;DHT22;4900;49.306;8.500;2023-04-15T03:17:32;5.40;69.12
9723;DHT22;4900;49.306;8.500;2023-04-15T03:20:01;5.36;68.95
9723;DHT22;4900;49.306;8.500;2023-04-15T03:22:27;5.39;69.03
9723;DHT22;4900;49.306;8.500;2023-04-15T03:24:53;5.37;69.00
9723;DHT22;4900;49.306;8.500;2023-04-15T03:27:18;5.36;69.15
9723;DHT22;4900;49.306;8.500;2023-04-15T03:29:44;5.36;69.16
9723;DHT22;4900;49.306;8.500;2023-04-15T03:32:09;5.37;69.28
9723;DHT22;4900;49.306;8.500;2023-04-15T03:34:35;5.37;69.43
9723;DHT22;4900;49.306;8.500;2023-04-15T03:37:00;5.36;69.45
9723;DHT22;4900;49.306;8.500;2023-04-15T03:39:26;5.37;69.50
9723;DHT22;4900;49.306;8.500;2023-04-15T03:41:51;5.37;69.56
9723;DHT22;4900;49.306;8.500;2023-04-15T03:44:17;5.34;69.47
9723;DHT22;4900;49.306;8.500;2023-04-15T03:46:42;5.29;69.52
9723;DHT22;4900;49.306;8.500;2023-04-15T03:49:07;5.22;69.75
9723;DHT22;4900;49.306;8.500;2023-04-15T03:51:33;5.20;69.80
9723;DHT22;4900;49.306;8.500;2023-04-15T03:53:59;5.15;69.85
9723;DHT22;4900;49.306;8.500;2023-04-15T03:56:24;5.13;69.96
9723;DHT22;4900;49.306;8.500;2023-04-15T03:58:50;5.12;70.12
9723;DHT22;4900;49.306;8.500;2023-04-15T04:01:15;5.13;70.21
9723;DHT22;4900;49.306;8.500;2023-04-15T04:03:41;5.15;70.37
9723;DHT22;4900;49.306;8.500;2023-04-15T04:06:07;5.16;70.49
9723;DHT22;4900;49.306;8.500;2023-04-15T04:08:32;5.22;70.68
9723;DHT22;4900;49.306;8.500;2023-04-15T04:10:58;5.26;70.76
9723;DHT22;4900;49.306;8.500;2023-04-15T04:13:23;5.27;70.77
9723;DHT22;4900;49.306;8.500;2023-04-15T04:15:49;5.27;70.85
9723;DHT22;4900;49.306;8.500;2023-04-15T04:18:14;5.27;70.77
9723;DHT22;4900;49.306;8.500;2023-04-15T04:20:40;5.27;70.72
9723;DHT22;4900;49.306;8.500;2023-04-15T04:23:05;5.29;70.68
9723;DHT22;4900;49.306;8.500;2023-04-15T04:25:31;5.30;70.68
9723;DHT22;4900;49.306;8.500;2023-04-15T04:27:58;5.30;70.67
9723;DHT22;4900;49.306;8.500;2023-04-15T04:30:23;5.32;70.63
9723;DHT22;4900;49.306;8.500;2023-04-15T04:32:49;5.33;70.66
9723;DHT22;4900;49.306;8.500;2023-04-15T04:35:15;5.32;70.70
9723;DHT22;4900;49.306;8.500;2023-04-15T04:37:41;5.32;70.64
9723;DHT22;4900;49.306;8.500;2023-04-15T04:40:07;5.30;70.64
9723;DHT22;4900;49.306;8.500;2023-04-15T04:42:33;5.32;70.45
9723;DHT22;4900;49.306;8.500;2023-04-15T04:44:59;5.29;70.46
9723;DHT22;4900;49.306;8.500;2023-04-15T04:47:24;5.30;70.43
9723;DHT22;4900;49.306;8.500;2023-04-15T04:49:50;5.29;70.43
9723;DHT22;4900;49.306;8.500;2023-04-15T04:52:15;5.23;70.57
9723;DHT22;4900;49.306;8.500;2023-04-15T04:54:41;5.25;70.75
9723;DHT22;4900;49.306;8.500;2023-04-15T04:57:06;5.29;70.70
9723;DHT22;4900;49.306;8.500;2023-04-15T04:59:32;5.30;70.76
9723;DHT22;4900;49.306;8.500;2023-04-15T05:01:58;5.32;70.65
9723;DHT22;4900;49.306;8.500;2023-04-15T05:04:23;5.37;70.67
9723;DHT22;4900;49.306;8.500;2023-04-15T05:06:48;5.37;70.92
9723;DHT22;4900;49.306;8.500;2023-04-15T05:09:14;5.42;71.09
9723;DHT22;4900;49.306;8.500;2023-04-15T05:11:40;5.48;71.13
9723;DHT22;4900;49.306;8.500;2023-04-15T05:14:05;5.57;71.22
9723;DHT22;4900;49.306;8.500;2023-04-15T05:16:31;5.60;71.33
9723;DHT22;4900;49.306;8.500;2023-04-15T05:18:56;5.64;71.39
9723;DHT22;4900;49.306;8.500;2023-04-15T05:21:22;5.68;71.43
9723;DHT22;4900;49.306;8.500;2023-04-15T05:23:47;5.73;71.37
9723;DHT22;4900;49.306;8.500;2023-04-15T05:26:13;5.79;71.24
9723;DHT22;4900;49.306;8.500;2023-04-15T05:28:38;5.82;71.10
9723;DHT22;4900;49.306;8.500;2023-04-15T05:31:04;5.87;70.96
9723;DHT22;4900;49.306;8.500;2023-04-15T05:33:30;5.91;71.05
9723;DHT22;4900;49.306;8.500;2023-04-15T05:35:55;5.94;71.41
9723;DHT22;4900;49.306;8.500;2023-04-15T05:38:21;5.97;71.63
9723;DHT22;4900;49.306;8.500;2023-04-15T05:40:46;5.99;71.63
9723;DHT22;4900;49.306;8.500;2023-04-15T05:43:11;6.02;71.84
9723;DHT22;4900;49.306;8.500;2023-04-15T05:45:37;6.06;71.85
9723;DHT22;4900;49.306;8.500;2023-04-15T05:48:02;6.13;71.84
9723;DHT22;4900;49.306;8.500;2023-04-15T05:50:28;6.17;71.88
9723;DHT22;4900;49.306;8.500;2023-04-15T05:52:53;6.25;71.96
9723;DHT22;4900;49.306;8.500;2023-04-15T05:55:20;6.33;71.79
9723;DHT22;4900;49.306;8.500;2023-04-15T05:57:46;6.38;72.09
9723;DHT22;4900;49.306;8.500;2023-04-15T06:00:12;6.45;72.31
9723;DHT22;4900;49.306;8.500;2023-04-15T06:02:38;6.58;72.59
9723;DHT22;4900;49.306;8.500;2023-04-15T06:05:04;6.67;72.30
9723;DHT22;4900;49.306;8.500;2023-04-15T06:07:34;6.78;72.13
9723;DHT22;4900;49.306;8.500;2023-04-15T06:10:02;6.85;72.04
9723;DHT22;4900;49.306;8.500;2023-04-15T06:12:27;6.99;72.24
9723;DHT22;4900;49.306;8.500;2023-04-15T06:14:53;7.10;72.30
9723;DHT22;4900;49.306;8.500;2023-04-15T06:17:18;7.17;72.35
9723;DHT22;4900;49.306;8.500;2023-04-15T06:19:43;7.28;72.36
9723;DHT22;4900;49.306;8.500;2023-04-15T06:22:09;7.41;72.19
9723;DHT22;4900;49.306;8.500;2023-04-15T06:24:34;7.54;71.97
9723;DHT22;4900;49.306;8.500;2023-04-15T06:27:01;7.71;71.78
9723;DHT22;4900;49.306;8.500;2023-04-15T06:29:27;7.85;71.74
9723;DHT22;4900;49.306;8.500;2023-04-15T06:31:53;7.99;71.74
9723;DHT22;4900;49.306;8.500;2023-04-15T06:34:18;8.20;71.75
9723;DHT22;4900;49.306;8.500;2023-04-15T06:36:44;8.46;71.59
9723;DHT22;4900;49.306;8.500;2023-04-15T06:39:09;8.85;70.97
9723;DHT22;4900;49.306;8.500;2023-04-15T06:41:35;9.36;69.86
9723;DHT22;4900;49.306;8.500;2023-04-15T06:44:00;9.93;68.79
9723;DHT22;4900;49.306;8.500;2023-04-15T06:46:26;10.50;66.97
9723;DHT22;4900;49.306;8.500;2023-04-15T06:48:52;11.00;65.37
9723;DHT22;4900;49.306;8.500;2023-04-15T06:51:17;11.39;63.81
9723;DHT22;4900;49.306;8.500;2023-04-15T06:53:43;11.67;62.70
9723;DHT22;4900;49.306;8.500;2023-04-15T06:56:08;12.13;61.98
9723;DHT22;4900;49.306;8.500;2023-04-15T06:58:34;12.50;60.70
9723;DHT22;4900;49.306;8.500;2023-04-15T07:01:00;12.93;59.88
9723;DHT22;4900;49.306;8.500;2023-04-15T07:03:26;13.26;58.83
9723;DHT22;4900;49.306;8.500;2023-04-15T07:05:51;13.63;58.09
9723;DHT22;4900;49.306;8.500;2023-04-15T07:08:18;14.09;56.52
9723;DHT22;4900;49.306;8.500;2023-04-15T07:10:45;14.37;55.21
9723;DHT22;4900;49.306;8.500;2023-04-15T07:13:11;14.85;54.38
9723;DHT22;4900;49.306;8.500;2023-04-15T07:15:36;15.15;53.79
9723;DHT22;4900;49.306;8.500;2023-04-15T07:18:02;15.53;53.26
9723;DHT22;4900;49.306;8.500;2023-04-15T07:20:27;15.73;52.30
9723;DHT22;4900;49.306;8.500;2023-04-15T07:22:53;16.02;51.59
9723;DHT22;4900;49.306;8.500;2023-04-15T07:25:19;16.26;51.48
9723;DHT22;4900;49.306;8.500;2023-04-15T07:27:44;16.32;50.30
9723;DHT22;4900;49.306;8.500;2023-04-15T07:30:10;16.54;49.53
9723;DHT22;4900;49.306;8.500;2023-04-15T07:32:37;16.69;49.91
9723;DHT22;4900;49.306;8.500;2023-04-15T07:35:02;16.83;48.75
9723;DHT22;4900;49.306;8.500;2023-04-15T07:37:28;17.05;48.31
9723;DHT22;4900;49.306;8.500;2023-04-15T07:39:54;17.37;47.95
9723;DHT22;4900;49.306;8.500;2023-04-15T07:42:20;17.84;47.56
9723;DHT22;4900;49.306;8.500;2023-04-15T07:44:46;18.14;47.28
9723;DHT22;4900;49.306;8.500;2023-04-15T07:47:11;18.72;46.66
9723;DHT22;4900;49.306;8.500;2023-04-15T07:49:37;19.23;45.29
9723;DHT22;4900;49.306;8.500;2023-04-15T07:52:03;19.37;44.77
9723;DHT22;4900;49.306;8.500;2023-04-15T07:54:28;19.69;44.15
9723;DHT22;4900;49.306;8.500;2023-04-15T07:56:54;19.47;44.28
9723;DHT22;4900;49.306;8.500;2023-04-15T07:59:20;19.26;44.62
9723;DHT22;4900;49.306;8.500;2023-04-15T08:01:46;19.09;45.31
9723;DHT22;4900;49.306;8.500;2023-04-15T08:04:12;19.04;45.32
9723;DHT22;4900;49.306;8.500;2023-04-15T08:06:38;19.03;45.11
9723;DHT22;4900;49.306;8.500;2023-04-15T08:09:05;18.88;45.61
9723;DHT22;4900;49.306;8.500;2023-04-15T08:11:31;18.78;45.84
9723;DHT22;4900;49.306;8.500;2023-04-15T08:13:56;18.69;45.88
9723;DHT22;4900;49.306;8.500;2023-04-15T08:16:23;18.76;45.76
9723;DHT22;4900;49.306;8.500;2023-04-15T08:18:50;18.57;46.40
9723;DHT22;4900;49.306;8.500;2023-04-15T08:21:17;18.76;46.24
9723;DHT22;4900;49.306;8.500;2023-04-15T08:23:44;18.86;46.25
9723;DHT22;4900;49.306;8.500;2023-04-15T08:26:10;19.14;46.02
9723;DHT22;4900;49.306;8.500;2023-04-15T08:28:40;19.85;45.24
9723;DHT22;4900;49.306;8.500;2023-04-15T08:31:07;20.65;43.87
9723;DHT22;4900;49.306;8.500;2023-04-15T08:33:32;20.81;43.09
9723;DHT22;4900;49.306;8.500;2023-04-15T08:35:58;20.81;42.99
9723;DHT22;4900;49.306;8.500;2023-04-15T08:38:23;20.92;43.02
9723;DHT22;4900;49.306;8.500;2023-04-15T08:40:49;21.11;42.80
9723;DHT22;4900;49.306;8.500;2023-04-15T08:43:20;21.27;42.50
9723;DHT22;4900;49.306;8.500;2023-04-15T08:45:49;21.16;42.46
9723;DHT22;4900;49.306;8.500;2023-04-15T08:48:16;21.21;42.45
9723;DHT22;4900;49.306;8.500;2023-04-15T08:50:42;21.59;41.92
9723;DHT22;4900;49.306;8.500;2023-04-15T08:53:09;21.78;41.26
9723;DHT22;4900;49.306;8.500;2023-04-15T08:55:44;21.74;41.27
9723;DHT22;4900;49.306;8.500;2023-04-15T08:58:11;21.68;41.32
9723;DHT22;4900;49.306;8.500;2023-04-15T09:00:38;21.62;41.31
9723;DHT22;4900;49.306;8.500;2023-04-15T09:03:04;21.76;41.65
9723;DHT22;4900;49.306;8.500;2023-04-15T09:05:37;21.75;41.22
9723;DHT22;4900;49.306;8.500;2023-04-15T09:08:03;21.68;41.72
9723;DHT22;4900;49.306;8.500;2023-04-15T09:10:30;21.74;41.63
9723;DHT22;4900;49.306;8.500;2023-04-15T09:12:56;22.09;41.32
9723;DHT22;4900;49.306;8.500;2023-04-15T09:15:25;22.00;40.70
9723;DHT22;4900;49.306;8.500;2023-04-15T09:17:52;22.21;40.70
9723;DHT22;4900;49.306;8.500;2023-04-15T09:20:17;22.28;40.44
9723;DHT22;4900;49.306;8.500;2023-04-15T09:22:44;22.36;40.41
9723;DHT22;4900;49.306;8.500;2023-04-15T09:27:50;22.62;38.97
9723;DHT22;4900;49.306;8.500;2023-04-15T09:30:16;23.03;38.17
9723;DHT22;4900;49.306;8.500;2023-04-15T09:32:58;23.48;38.10
9723;DHT22;4900;49.306;8.500;2023-04-15T09:35:25;23.65;36.03
9723;DHT22;4900;49.306;8.500;2023-04-15T09:37:52;23.82;36.61
9723;DHT22;4900;49.306;8.500;2023-04-15T09:40:35;23.48;35.51
9723;DHT22;4900;49.306;8.500;2023-04-15T09:43:02;23.65;35.99
9723;DHT22;4900;49.306;8.500;2023-04-15T09:45:28;23.98;36.12
9723;DHT22;4900;49.306;8.500;2023-04-15T09:47:53;24.18;36.09
9723;DHT22;4900;49.306;8.500;2023-04-15T09:50:19;24.40;36.07
9723;DHT22;4900;49.306;8.500;2023-04-15T09:52:45;24.37;35.10
9723;DHT22;4900;49.306;8.500;2023-04-15T09:55:12;24.18;35.07
9723;DHT22;4900;49.306;8.500;2023-04-15T09:57:39;24.10;35.13
9723;DHT22;4900;49.306;8.500;2023-04-15T10:00:14;24.13;35.91
9723;DHT22;4900;49.306;8.500;2023-04-15T10:02:40;23.54;35.89
9723;DHT22;4900;49.306;8.500;2023-04-15T10:05:14;23.33;35.55
9723;DHT22;4900;49.306;8.500;2023-04-15T10:07:42;23.16;35.84
9723;DHT22;4900;49.306;8.500;2023-04-15T10:10:09;22.98;35.99
9723;DHT22;4900;49.306;8.500;2023-04-15T10:12:39;23.61;35.59
9723;DHT22;4900;49.306;8.500;2023-04-15T10:15:10;23.99;35.27
9723;DHT22;4900;49.306;8.500;2023-04-15T10:17:42;24.12;34.98
9723;DHT22;4900;49.306;8.500;2023-04-15T10:20:09;24.05;34.40
9723;DHT22;4900;49.306;8.500;2023-04-15T10:22:35;24.12;35.02
9723;DHT22;4900;49.306;8.500;2023-04-15T10:25:01;24.07;34.80
9723;DHT22;4900;49.306;8.500;2023-04-15T10:27:28;23.88;34.87
9723;DHT22;4900;49.306;8.500;2023-04-15T10:29:55;23.98;35.27
9723;DHT22;4900;49.306;8.500;2023-04-15T10:32:21;23.71;35.38
9723;DHT22;4900;49.306;8.500;2023-04-15T10:34:48;24.05;35.17
9723;DHT22;4900;49.306;8.500;2023-04-15T10:37:32;24.24;35.47
9723;DHT22;4900;49.306;8.500;2023-04-15T10:39:58;24.61;34.70
9723;DHT22;4900;49.306;8.500;2023-04-15T10:42:23;24.86;34.48
9723;DHT22;4900;49.306;8.500;2023-04-15T10:44:50;24.68;32.94
9723;DHT22;4900;49.306;8.500;2023-04-15T10:47:20;24.83;33.00
9723;DHT22;4900;49.306;8.500;2023-04-15T10:49:49;24.52;33.90
9723;DHT22;4900;49.306;8.500;2023-04-15T10:52:16;24.75;33.82
9723;DHT22;4900;49.306;8.500;2023-04-15T10:54:42;24.57;34.01
9723;DHT22;4900;49.306;8.500;2023-04-15T10:57:13;24.67;34.11
9723;DHT22;4900;49.306;8.500;2023-04-15T11:00:00;24.60;34.09
9723;DHT22;4900;49.306;8.500;2023-04-15T11:02:55;24.99;34.03
9723;DHT22;4900;49.306;8.500;2023-04-15T11:05:52;25.47;33.12
9723;DHT22;4900;49.306;8.500;2023-04-15T11:08:18;25.20;33.27
9723;DHT22;4900;49.306;8.500;2023-04-15T11:15:45;25.35;32.60
9723;DHT22;4900;49.306;8.500;2023-04-15T11:20:41;25.02;32.22
9723;DHT22;4900;49.306;8.500;2023-04-15T11:23:09;25.24;31.63
9723;DHT22;4900;49.306;8.500;2023-04-15T11:25:35;25.03;31.40
9723;DHT22;4900;49.306;8.500;2023-04-15T11:28:05;24.89;31.63
9723;DHT22;4900;49.306;8.500;2023-04-15T11:30:33;25.09;31.69
9723;DHT22;4900;49.306;8.500;2023-04-15T11:33:04;24.88;30.49
9723;DHT22;4900;49.306;8.500;2023-04-15T11:35:30;24.82;29.81
9723;DHT22;4900;49.306;8.500;2023-04-15T11:37:56;25.41;30.10
9723;DHT22;4900;49.306;8.500;2023-04-15T11:40:30;25.95;28.81
9723;DHT22;4900;49.306;8.500;2023-04-15T11:43:10;25.93;26.98
9723;DHT22;4900;49.306;8.500;2023-04-15T11:45:46;25.74;26.39
9723;DHT22;4900;49.306;8.500;2023-04-15T11:48:13;25.82;26.86
9723;DHT22;4900;49.306;8.500;2023-04-15T11:50:39;25.93;27.25
9723;DHT22;4900;49.306;8.500;2023-04-15T11:53:07;25.41;27.00
9723;DHT22;4900;49.306;8.500;2023-04-15T11:55:50;24.76;26.89
9723;DHT22;4900;49.306;8.500;2023-04-15T11:58:23;24.71;27.25
9723;DHT22;4900;49.306;8.500;2023-04-15T12:00:50;24.32;27.89
9723;DHT22;4900;49.306;8.500;2023-04-15T12:03:21;23.84;28.54
9723;DHT22;4900;49.306;8.500;2023-04-15T12:13:53;22.79;30.95
9723;DHT22;4900;49.306;8.500;2023-04-15T12:16:20;22.73;31.16
9723;DHT22;4900;49.306;8.500;2023-04-15T12:18:46;22.62;31.27
9723;DHT22;4900;49.306;8.500;2023-04-15T12:21:13;22.58;31.59
9723;DHT22;4900;49.306;8.500;2023-04-15T12:23:49;22.40;32.23
9723;DHT22;4900;49.306;8.500;2023-04-15T12:26:29;22.26;32.56
9723;DHT22;4900;49.306;8.500;2023-04-15T12:29:08;22.26;32.58
9723;DHT22;4900;49.306;8.500;2023-04-15T12:31:35;22.37;33.05
9723;DHT22;4900;49.306;8.500;2023-04-15T12:34:01;22.45;32.51
9723;DHT22;4900;49.306;8.500;2023-04-15T12:36:28;22.33;32.50
9723;DHT22;4900;49.306;8.500;2023-04-15T12:38:55;21.96;32.70
9723;DHT22;4900;49.306;8.500;2023-04-15T12:41:21;21.93;33.00
9723;DHT22;4900;49.306;8.500;2023-04-15T12:43:49;21.92;33.35
9723;DHT22;4900;49.306;8.500;2023-04-15T12:46:14;21.78;33.85
9723;DHT22;4900;49.306;8.500;2023-04-15T12:48:40;21.51;34.09
9723;DHT22;4900;49.306;8.500;2023-04-15T12:51:06;21.33;33.96
9723;DHT22;4900;49.306;8.500;2023-04-15T12:53:31;21.11;34.44
9723;DHT22;4900;49.306;8.500;2023-04-15T12:55:57;20.83;35.26
9723;DHT22;4900;49.306;8.500;2023-04-15T12:58:22;20.41;35.59
9723;DHT22;4900;49.306;8.500;2023-04-15T13:00:49;20.34;35.44
9723;DHT22;4900;49.306;8.500;2023-04-15T13:03:14;20.17;35.40
9723;DHT22;4900;49.306;8.500;2023-04-15T13:05:40;19.96;35.78
9723;DHT22;4900;49.306;8.500;2023-04-15T13:08:07;19.87;36.30
9723;DHT22;4900;49.306;8.500;2023-04-15T13:10:34;19.62;36.14
9723;DHT22;4900;49.306;8.500;2023-04-15T13:13:03;19.46;36.40
9723;DHT22;4900;49.306;8.500;2023-04-15T13:15:29;19.34;36.72
9723;DHT22;4900;49.306;8.500;2023-04-15T13:17:54;19.13;36.92
9723;DHT22;4900;49.306;8.500;2023-04-15T13:20:20;19.10;37.25
9723;DHT22;4900;49.306;8.500;2023-04-15T13:22:46;18.91;37.51
9723;DHT22;4900;49.306;8.500;2023-04-15T13:25:11;18.89;37.35
9723;DHT22;4900;49.306;8.500;2023-04-15T13:27:37;18.79;37.77
9723;DHT22;4900;49.306;8.500;2023-04-15T13:30:04;18.74;37.97
9723;DHT22;4900;49.306;8.500;2023-04-15T13:32:29;18.71;37.44
9723;DHT22;4900;49.306;8.500;2023-04-15T13:34:55;18.57;37.24
9723;DHT22;4900;49.306;8.500;2023-04-15T13:37:28;18.61;37.46
9723;DHT22;4900;49.306;8.500;2023-04-15T13:39:54;18.64;36.28
9723;DHT22;4900;49.306;8.500;2023-04-15T13:42:21;18.53;35.73
9723;DHT22;4900;49.306;8.500;2023-04-15T13:44:46;18.46;35.24
9723;DHT22;4900;49.306;8.500;2023-04-15T13:47:12;18.17;35.72
9723;DHT22;4900;49.306;8.500;2023-04-15T13:49:39;18.13;35.50
9723;DHT22;4900;49.306;8.500;2023-04-15T13:52:05;18.01;34.76
9723;DHT22;4900;49.306;8.500;2023-04-15T13:54:30;18.01;35.18
9723;DHT22;4900;49.306;8.500;2023-04-15T13:56:56;18.06;35.17
9723;DHT22;4900;49.306;8.500;2023-04-15T13:59:22;18.08;35.35
9723;DHT22;4900;49.306;8.500;2023-04-15T14:01:48;18.05;35.96
9723;DHT22;4900;49.306;8.500;2023-04-15T14:04:13;17.94;36.48
9723;DHT22;4900;49.306;8.500;2023-04-15T14:06:39;17.89;37.40
9723;DHT22;4900;49.306;8.500;2023-04-15T14:09:04;18.02;37.48
9723;DHT22;4900;49.306;8.500;2023-04-15T14:11:30;17.95;37.83
9723;DHT22;4900;49.306;8.500;2023-04-15T14:13:55;18.02;37.95
9723;DHT22;4900;49.306;8.500;2023-04-15T14:16:21;18.08;38.45
9723;DHT22;4900;49.306;8.500;2023-04-15T14:18:46;18.09;37.96
9723;DHT22;4900;49.306;8.500;2023-04-15T14:21:12;18.16;38.34
9723;DHT22;4900;49.306;8.500;2023-04-15T14:23:37;18.30;38.48
9723;DHT22;4900;49.306;8.500;2023-04-15T14:26:03;18.39;38.76
9723;DHT22;4900;49.306;8.500;2023-04-15T14:28:28;18.58;38.46
9723;DHT22;4900;49.306;8.500;2023-04-15T14:30:54;18.75;38.44
9723;DHT22;4900;49.306;8.500;2023-04-15T14:33:19;18.89;38.37
9723;DHT22;4900;49.306;8.500;2023-04-15T14:35:45;19.10;37.96
9723;DHT22;4900;49.306;8.500;2023-04-15T14:38:10;19.14;38.33
9723;DHT22;4900;49.306;8.500;2023-04-15T14:40:36;19.04;38.38
9723;DHT22;4900;49.306;8.500;2023-04-15T14:43:02;18.82;38.42
9723;DHT22;4900;49.306;8.500;2023-04-15T14:45:28;18.76;38.56
9723;DHT22;4900;49.306;8.500;2023-04-15T14:47:54;18.64;39.95
9723;DHT22;4900;49.306;8.500;2023-04-15T14:50:20;18.46;41.76
9723;DHT22;4900;49.306;8.500;2023-04-15T14:52:45;18.20;43.71
9723;DHT22;4900;49.306;8.500;2023-04-15T14:55:11;18.16;44.52
9723;DHT22;4900;49.306;8.500;2023-04-15T14:57:38;18.09;45.17
9723;DHT22;4900;49.306;8.500;2023-04-15T15:00:04;18.06;45.77
9723;DHT22;4900;49.306;8.500;2023-04-15T15:02:32;17.95;46.35
9723;DHT22;4900;49.306;8.500;2023-04-15T15:05:00;17.81;47.35
9723;DHT22;4900;49.306;8.500;2023-04-15T15:07:26;18.10;47.24
9723;DHT22;4900;49.306;8.500;2023-04-15T15:09:52;18.08;47.56
9723;DHT22;4900;49.306;8.500;2023-04-15T15:12:17;18.01;47.53
9723;DHT22;4900;49.306;8.500;2023-04-15T15:14:43;18.16;47.44
9723;DHT22;4900;49.306;8.500;2023-04-15T15:17:08;18.26;47.54
9723;DHT22;4900;49.306;8.500;2023-04-15T15:19:34;18.23;47.83
9723;DHT22;4900;49.306;8.500;2023-04-15T15:22:00;17.99;48.20
9723;DHT22;4900;49.306;8.500;2023-04-15T15:24:25;17.74;48.64
9723;DHT22;4900;49.306;8.500;2023-04-15T15:26:51;17.49;49.38
9723;DHT22;4900;49.306;8.500;2023-04-15T15:29:16;17.33;50.17
9723;DHT22;4900;49.306;8.500;2023-04-15T15:31:42;17.16;50.47
9723;DHT22;4900;49.306;8.500;2023-04-15T15:34:07;16.85;51.62
9723;DHT22;4900;49.306;8.500;2023-04-15T15:36:33;16.61;52.05
9723;DHT22;4900;49.306;8.500;2023-04-15T15:38:58;16.37;52.75
9723;DHT22;4900;49.306;8.500;2023-04-15T15:41:24;16.18;53.05
9723;DHT22;4900;49.306;8.500;2023-04-15T15:43:50;15.94;53.55
9723;DHT22;4900;49.306;8.500;2023-04-15T15:46:16;15.71;54.30
9723;DHT22;4900;49.306;8.500;2023-04-15T15:48:42;15.50;55.38
9723;DHT22;4900;49.306;8.500;2023-04-15T15:51:07;15.43;55.69
9723;DHT22;4900;49.306;8.500;2023-04-15T15:53:33;15.38;55.97
9723;DHT22;4900;49.306;8.500;2023-04-15T15:55:59;15.25;56.54
9723;DHT22;4900;49.306;8.500;2023-04-15T15:58:25;15.16;57.06
9723;DHT22;4900;49.306;8.500;2023-04-15T16:00:51;15.04;58.22
9723;DHT22;4900;49.306;8.500;2023-04-15T16:03:16;14.89;58.87
9723;DHT22;4900;49.306;8.500;2023-04-15T16:05:42;14.97;59.15
9723;DHT22;4900;49.306;8.500;2023-04-15T16:08:08;14.83;59.71
9723;DHT22;4900;49.306;8.500;2023-04-15T16:10:33;14.71;59.92
9723;DHT22;4900;49.306;8.500;2023-04-15T16:12:59;14.67;60.30
9723;DHT22;4900;49.306;8.500;2023-04-15T16:15:25;14.43;61.38
9723;DHT22;4900;49.306;8.500;2023-04-15T16:17:50;14.32;61.95
9723;DHT22;4900;49.306;8.500;2023-04-15T16:20:16;14.21;62.41
9723;DHT22;4900;49.306;8.500;2023-04-15T16:22:42;14.16;63.22
9723;DHT22;4900;49.306;8.500;2023-04-15T16:25:07;14.02;63.99